Time;durP1;ratioP1;P1;durP2;ratioP2;P2;SDS_P1;SDS_P2;PMS_P1;PMS_P2;Temp;Humidity;BMP_temperature;BMP_pressure;BME280_temperature;BME280_humidity;BME280_pressure;Samples;Min_cycle;Max_cycle;Signal;HPM_P1;HPM_P2
2023/04/15 00:00:03;;;;;;;4.22;2.63;;;;;;;3.24;100.00;94886.25;5063430;28;20059;-76
2023/04/15 00:02:29;;;;;;;5.95;2.90;;;;;;;3.15;100.00;94887.50;5062817;28;20056;-75
2023/04/15 00:04:56;;;;;;;8.35;2.60;;;;;;;2.93;100.00;94887.72;5059748;28;20095;-75
2023/04/15 00:07:22;;;;;;;13.77;3.05;;;;;;;2.84;100.00;94886.38;5062279;28;20040;-75
2023/04/15 00:09:53;;;;;;;5.82;3.42;;;;;;;2.85;100.00;94885.47;5060567;28;20056;-75
2023/04/15 00:12:20;;;;;;;5.10;2.97;;;;;;;2.79;100.00;94879.84;5061466;28;20079;-75
2023/04/15 00:14:47;;;;;;;8.65;4.03;;;;;;;2.78;100.00;94880.72;5062486;28;20068;-75
2023/04/15 00:17:13;;;;;;;7.22;3.65;;;;;;;2.69;100.00;94881.16;5061330;28;20048;-75
2023/04/15 00:19:40;;;;;;;7.72;4.00;;;;;;;2.63;100.00;94875.44;5058345;28;20072;-75
2023/04/15 00:22:07;;;;;;;4.38;3.17;;;;;;;2.66;100.00;94877.00;5061672;28;20079;-75
2023/04/15 00:24:33;;;;;;;4.95;3.55;;;;;;;2.50;100.00;94874.34;5062101;28;20411;-75
2023/04/15 00:27:01;;;;;;;4.18;3.13;;;;;;;2.43;100.00;94880.63;5056343;28;20041;-75
2023/04/15 00:29:28;;;;;;;4.88;3.78;;;;;;;2.38;100.00;94873.19;5057475;28;20057;-75
2023/04/15 00:31:54;;;;;;;7.28;3.83;;;;;;;2.36;100.00;94884.34;5064872;28;20123;-75
2023/04/15 00:34:21;;;;;;;6.43;3.70;;;;;;;2.40;100.00;94881.59;5057031;28;20044;-75
2023/04/15 00:36:47;;;;;;;7.50;4.55;;;;;;;2.33;100.00;94874.25;5060240;28;20037;-75
2023/04/15 00:39:15;;;;;;;7.47;4.68;;;;;;;2.30;100.00;94875.25;5063779;28;20049;-75
2023/04/15 00:41:41;;;;;;;8.95;4.85;;;;;;;2.25;100.00;94864.38;5069452;28;20131;-75
2023/04/15 00:44:10;;;;;;;6.38;4.32;;;;;;;2.25;100.00;94869.50;5064701;28;20407;-75
2023/04/15 00:46:38;;;;;;;10.75;4.93;;;;;;;2.25;100.00;94866.94;5063334;28;20139;-75
2023/04/15 00:49:05;;;;;;;5.63;4.47;;;;;;;2.28;100.00;94871.91;5063049;28;20047;-75
2023/04/15 00:51:34;;;;;;;7.78;5.20;;;;;;;2.32;100.00;94870.06;5058013;28;20052;-75
2023/04/15 00:54:01;;;;;;;9.90;5.00;;;;;;;2.31;100.00;94866.69;5063063;28;20048;-75
2023/04/15 00:56:29;;;;;;;8.85;5.50;;;;;;;2.26;100.00;94871.16;5065742;28;20049;-75
2023/04/15 00:58:56;;;;;;;8.40;5.38;;;;;;;2.20;100.00;94873.16;5063333;28;20052;-75
2023/04/15 01:01:26;;;;;;;7.18;4.80;;;;;;;2.21;100.00;94869.72;5059472;28;20597;-76
2023/04/15 01:03:52;;;;;;;8.10;5.22;;;;;;;2.20;100.00;94874.00;5065332;28;20048;-75
2023/04/15 01:06:19;;;;;;;9.32;4.95;;;;;;;2.13;100.00;94872.59;5070605;28;20058;-75
2023/04/15 01:08:45;;;;;;;9.52;4.68;;;;;;;2.13;100.00;94870.88;5059127;28;20052;-76
2023/04/15 01:11:13;;;;;;;9.60;4.82;;;;;;;2.13;100.00;94868.31;5061872;28;20052;-75
2023/04/15 01:13:40;;;;;;;7.60;3.78;;;;;;;2.15;100.00;94863.13;5057546;28;20057;-75
2023/04/15 01:16:07;;;;;;;9.15;4.53;;;;;;;2.10;100.00;94873.56;5057314;28;20566;-76
2023/04/15 01:18:37;;;;;;;6.20;4.30;;;;;;;2.08;100.00;94865.16;5057348;28;20045;-75
2023/04/15 01:21:05;;;;;;;21.40;5.15;;;;;;;2.07;100.00;94870.31;5061598;28;20080;-75
2023/04/15 01:23:32;;;;;;;10.02;4.53;;;;;;;2.03;100.00;94868.78;5061824;28;20056;-75
2023/04/15 01:26:00;;;;;;;6.57;4.13;;;;;;;2.00;100.00;94869.75;5058786;28;20040;-75
2023/04/15 01:28:27;;;;;;;6.00;4.00;;;;;;;2.02;100.00;94867.97;5062979;28;20056;-75
2023/04/15 01:31:06;;;;;;;6.00;3.97;;;;;;;2.08;100.00;94872.81;5058993;28;20056;-75
2023/04/15 01:33:32;;;;;;;6.57;3.80;;;;;;;2.12;100.00;94868.41;5062513;28;20048;-75
2023/04/15 01:35:59;;;;;;;7.32;4.25;;;;;;;2.16;100.00;94870.75;5055015;28;20041;-75
2023/04/15 01:38:27;;;;;;;5.53;3.58;;;;;;;2.00;100.00;94872.31;5069300;28;20051;-75
2023/04/15 01:40:53;;;;;;;5.32;3.50;;;;;;;1.85;100.00;94870.41;5061118;28;20052;-75
2023/04/15 01:43:21;;;;;;;5.35;3.45;;;;;;;1.88;100.00;94870.28;5057617;28;20131;-75
2023/04/15 01:45:47;;;;;;;9.20;3.90;;;;;;;1.91;100.00;94867.59;5056583;28;20045;-75
2023/04/15 01:48:14;;;;;;;7.30;2.95;;;;;;;1.90;100.00;94865.97;5062219;28;20052;-75
2023/04/15 01:50:41;;;;;;;7.85;3.90;;;;;;;2.00;100.00;94862.09;5064503;28;20127;-74
2023/04/15 01:53:08;;;;;;;4.97;3.13;;;;;;;1.79;100.00;94858.75;5065511;28;20054;-75
2023/04/15 01:55:35;;;;;;;3.88;2.90;;;;;;;1.69;100.00;94853.22;5058162;28;20106;-74
2023/04/15 01:58:01;;;;;;;5.15;3.20;;;;;;;1.65;100.00;94850.84;5054271;28;20052;-75
2023/04/15 02:00:29;;;;;;;4.07;3.22;;;;;;;1.68;100.00;94856.66;5058446;28;20056;-75
2023/04/15 02:02:56;;;;;;;5.60;3.60;;;;;;;1.60;100.00;94860.44;5056801;28;20502;-74
2023/04/15 02:05:23;;;;;;;4.65;2.92;;;;;;;1.62;100.00;94856.09;5058664;28;20049;-74
2023/04/15 02:07:50;;;;;;;4.32;3.05;;;;;;;1.53;100.00;94854.75;5059860;28;20143;-75
2023/04/15 02:10:16;;;;;;;4.55;3.30;;;;;;;1.49;100.00;94850.69;5057237;28;20064;-75
2023/04/15 02:12:43;;;;;;;4.72;3.28;;;;;;;1.49;100.00;94849.88;5057302;28;20481;-75
2023/04/15 02:15:10;;;;;;;5.65;3.05;;;;;;;1.48;100.00;94851.56;5057221;28;20053;-76
2023/04/15 02:17:38;;;;;;;13.20;4.22;;;;;;;1.53;100.00;94842.00;5066821;28;20049;-76
2023/04/15 02:20:05;;;;;;;6.05;3.67;;;;;;;1.58;100.00;94842.63;5063542;28;20052;-75
2023/04/15 02:22:32;;;;;;;6.15;2.90;;;;;;;1.66;100.00;94847.41;5067634;28;20072;-75
2023/04/15 02:24:58;;;;;;;4.32;2.33;;;;;;;1.66;100.00;94852.50;5058178;28;20086;-75
2023/04/15 02:27:25;;;;;;;3.88;3.00;;;;;;;1.70;100.00;94856.59;5059378;28;20048;-76
2023/04/15 02:29:51;;;;;;;4.00;2.65;;;;;;;1.73;100.00;94858.19;5064184;28;20040;-75
2023/04/15 02:32:18;;;;;;;5.38;2.20;;;;;;;1.78;100.00;94858.81;5058410;28;20048;-75
2023/04/15 02:34:46;;;;;;;5.97;2.35;;;;;;;1.82;100.00;94861.19;5062840;28;20449;-75
2023/04/15 02:37:13;;;;;;;2.08;1.60;;;;;;;1.85;100.00;94857.66;5052651;28;20067;-74
2023/04/15 02:39:39;;;;;;;4.55;1.63;;;;;;;1.85;100.00;94862.75;5060344;28;20059;-76
2023/04/15 02:42:06;;;;;;;4.70;2.35;;;;;;;1.87;100.00;94853.31;5057043;28;20048;-75
2023/04/15 02:44:35;;;;;;;7.22;1.70;;;;;;;1.88;100.00;94857.53;5054794;28;20052;-75
2023/04/15 02:47:02;;;;;;;2.45;1.60;;;;;;;1.90;100.00;94861.69;5060744;28;20044;-75
2023/04/15 02:49:29;;;;;;;3.22;1.48;;;;;;;1.91;100.00;94862.50;5057963;28;20068;-75
2023/04/15 02:51:58;;;;;;;2.55;1.52;;;;;;;1.85;100.00;94858.47;5057508;28;20079;-76
2023/04/15 02:54:27;;;;;;;2.70;1.73;;;;;;;1.90;100.00;94861.69;5061549;28;20049;-75
2023/04/15 02:56:55;;;;;;;5.00;1.73;;;;;;;1.89;100.00;94859.16;5058265;28;20053;-75
2023/04/15 02:59:22;;;;;;;7.28;1.73;;;;;;;1.89;100.00;94851.50;5053378;28;20629;-75
2023/04/15 03:01:48;;;;;;;2.50;1.58;;;;;;;1.90;100.00;94853.19;5056796;28;20056;-75
2023/04/15 03:04:15;;;;;;;13.77;2.35;;;;;;;1.84;100.00;94858.56;5063647;28;20059;-75
2023/04/15 03:06:41;;;;;;;3.05;1.85;;;;;;;1.69;100.00;94852.38;5057355;28;20041;-75
2023/04/15 03:09:09;;;;;;;3.72;1.98;;;;;;;1.77;100.00;94855.44;5065862;28;20059;-75
2023/04/15 03:11:39;;;;;;;4.38;1.98;;;;;;;1.76;100.00;94860.63;5053771;28;20049;-75
2023/04/15 03:14:05;;;;;;;3.53;2.13;;;;;;;1.72;100.00;94861.66;5063041;28;20128;-75
2023/04/15 03:16:32;;;;;;;3.70;2.13;;;;;;;1.62;100.00;94849.25;5053390;28;20049;-75
2023/04/15 03:18:58;;;;;;;3.10;1.98;;;;;;;1.61;100.00;94855.25;5063281;28;20045;-75
2023/04/15 03:21:25;;;;;;;3.28;2.17;;;;;;;1.60;100.00;94857.91;5058311;28;20068;-75
2023/04/15 03:23:52;;;;;;;5.85;2.75;;;;;;;1.50;100.00;94852.34;5064030;28;20047;-75
2023/04/15 03:26:28;;;;;;;3.83;2.22;;;;;;;1.51;100.00;94858.25;5056121;28;20052;-75
2023/04/15 03:28:54;;;;;;;3.97;1.70;;;;;;;1.53;100.00;94851.38;5062528;28;20071;-75
2023/04/15 03:31:21;;;;;;;2.60;1.80;;;;;;;1.47;100.00;94851.63;5066934;28;20105;-75
2023/04/15 03:33:47;;;;;;;3.60;2.08;;;;;;;1.40;100.00;94858.72;5059641;28;20045;-75
2023/04/15 03:36:14;;;;;;;3.22;2.20;;;;;;;1.27;100.00;94855.84;5056083;28;20060;-76
2023/04/15 03:38:41;;;;;;;4.90;2.35;;;;;;;1.29;100.00;94859.16;5062657;28;20511;-75
2023/04/15 03:41:08;;;;;;;2.72;2.10;;;;;;;1.24;100.00;94852.59;5064013;28;20051;-74
2023/04/15 03:43:36;;;;;;;5.43;2.53;;;;;;;1.28;100.00;94852.41;5067019;28;20048;-75
2023/04/15 03:46:02;;;;;;;3.92;2.08;;;;;;;1.21;100.00;94851.00;5053770;28;20511;-75
2023/04/15 03:48:29;;;;;;;3.15;2.08;;;;;;;1.21;100.00;94851.00;5051114;28;20045;-75
2023/04/15 03:50:55;;;;;;;3.08;1.98;;;;;;;1.23;100.00;94849.22;5058215;28;20044;-75
2023/04/15 03:53:22;;;;;;;10.43;2.38;;;;;;;1.16;100.00;94845.25;5064916;28;20052;-75
2023/04/15 03:55:48;;;;;;;5.95;2.22;;;;;;;1.07;100.00;94854.09;5075913;28;20079;-75
2023/04/15 03:58:14;;;;;;;4.30;2.10;;;;;;;1.09;100.00;94852.31;5057919;28;20048;-75
2023/04/15 04:00:42;;;;;;;1.80;1.52;;;;;;;1.12;100.00;94849.66;5053100;28;20059;-75
2023/04/15 04:03:09;;;;;;;5.03;2.03;;;;;;;1.10;100.00;94841.22;5051986;28;20052;-76
2023/04/15 04:05:37;;;;;;;3.30;2.00;;;;;;;1.20;100.00;94850.16;5062513;28;20048;-75
2023/04/15 04:08:04;;;;;;;4.25;1.88;;;;;;;1.26;100.00;94853.34;5058487;28;20512;-75
2023/04/15 04:10:31;;;;;;;2.95;1.90;;;;;;;1.13;100.00;94842.81;5062320;28;20048;-75
2023/04/15 04:12:58;;;;;;;4.03;2.25;;;;;;;1.12;100.00;94839.44;5058790;28;20075;-76
2023/04/15 04:15:24;;;;;;;2.83;2.05;;;;;;;0.94;100.00;94851.22;5054598;28;20060;-75
2023/04/15 04:17:52;;;;;;;3.28;2.15;;;;;;;0.89;100.00;94852.28;5060743;28;20046;-75
2023/04/15 04:20:18;;;;;;;3.60;2.40;;;;;;;0.92;100.00;94853.00;5058093;28;20499;-75
2023/04/15 04:22:45;;;;;;;3.28;1.92;;;;;;;0.96;100.00;94848.59;5077655;28;20047;-74
2023/04/15 04:25:11;;;;;;;2.33;1.90;;;;;;;0.98;100.00;94853.66;5069177;28;20510;-75
2023/04/15 04:27:38;;;;;;;2.53;2.15;;;;;;;0.93;100.00;94847.03;5064555;28;20044;-75
2023/04/15 04:30:05;;;;;;;2.53;1.73;;;;;;;0.87;100.00;94854.06;5053569;28;20049;-75
2023/04/15 04:32:32;;;;;;;2.03;1.63;;;;;;;0.81;100.00;94854.31;5052453;28;20118;-74
2023/04/15 04:34:59;;;;;;;3.30;1.95;;;;;;;0.83;100.00;94858.47;5052546;28;20048;-74
2023/04/15 04:37:26;;;;;;;3.03;2.20;;;;;;;0.93;100.00;94852.13;5059179;28;20087;-74
2023/04/15 04:39:52;;;;;;;3.63;2.60;;;;;;;1.03;100.00;94855.09;5054033;28;20075;-74
2023/04/15 04:42:19;;;;;;;4.32;2.80;;;;;;;0.80;100.00;94856.03;5053782;28;20052;-74
2023/04/15 04:44:46;;;;;;;4.72;2.90;;;;;;;0.85;100.00;94853.28;5053559;28;20493;-74
2023/04/15 04:47:12;;;;;;;2.95;2.17;;;;;;;0.95;100.00;94852.03;5062758;28;20110;-74
2023/04/15 04:49:39;;;;;;;3.42;2.47;;;;;;;1.02;100.00;94857.72;5056636;28;20109;-74
2023/04/15 04:52:07;;;;;;;2.20;1.92;;;;;;;1.06;100.00;94851.63;5062081;28;20047;-75
2023/04/15 04:54:34;;;;;;;3.30;2.10;;;;;;;1.05;100.00;94853.34;5059372;28;20059;-75
2023/04/15 04:57:01;;;;;;;2.67;2.17;;;;;;;1.05;100.00;94861.00;5063060;28;20072;-75
2023/04/15 04:59:27;;;;;;;4.22;2.30;;;;;;;1.00;100.00;94859.50;5062016;28;20068;-75
2023/04/15 05:01:54;;;;;;;3.80;2.80;;;;;;;0.98;100.00;94862.13;5062573;28;20059;-74
2023/04/15 05:04:20;;;;;;;2.85;2.55;;;;;;;0.98;100.00;94859.56;5077633;28;20050;-74
2023/04/15 05:06:47;;;;;;;2.88;2.22;;;;;;;0.97;100.00;94865.56;5066033;28;20048;-75
2023/04/15 05:09:14;;;;;;;3.63;2.60;;;;;;;0.98;100.00;94869.78;5059190;28;20041;-74
2023/04/15 05:11:41;;;;;;;3.65;2.60;;;;;;;0.96;100.00;94874.09;5068829;28;20133;-75
2023/04/15 05:14:07;;;;;;;3.80;2.70;;;;;;;1.07;100.00;94873.66;5084175;28;20074;-74
2023/04/15 05:16:34;;;;;;;3.67;2.40;;;;;;;1.20;100.00;94874.84;5074296;28;20048;-74
2023/04/15 05:19:00;;;;;;;3.65;2.83;;;;;;;1.32;100.00;94868.41;5064084;28;20045;-74
2023/04/15 05:21:27;;;;;;;5.00;2.58;;;;;;;1.28;100.00;94867.69;5064754;28;20060;-75
2023/04/15 05:23:53;;;;;;;4.93;3.17;;;;;;;1.24;100.00;94867.91;5060514;28;20546;-74
2023/04/15 05:26:23;;;;;;;3.75;2.58;;;;;;;1.27;100.00;94872.88;5061514;28;20052;-75
2023/04/15 05:28:49;;;;;;;4.32;3.15;;;;;;;1.27;100.00;94877.97;5056672;28;20044;-75
2023/04/15 05:31:16;;;;;;;3.40;2.58;;;;;;;1.27;100.00;94878.81;5058949;28;20056;-75
2023/04/15 05:33:42;;;;;;;4.25;2.28;;;;;;;1.39;100.00;94872.38;5058022;28;20060;-74
2023/04/15 05:36:09;;;;;;;2.25;1.95;;;;;;;1.49;100.00;94876.19;5062550;28;20052;-74
2023/04/15 05:38:36;;;;;;;2.88;2.22;;;;;;;1.56;100.00;94872.50;5065174;28;20052;-75
2023/04/15 05:41:02;;;;;;;1.95;1.55;;;;;;;1.69;100.00;94871.06;5062079;28;20471;-74
2023/04/15 05:43:30;;;;;;;4.13;2.33;;;;;;;1.76;100.00;94870.81;5063616;28;20044;-75
2023/04/15 05:45:56;;;;;;;4.57;2.33;;;;;;;1.89;100.00;94877.03;5064974;28;20098;-74
2023/04/15 05:48:23;;;;;;;4.65;2.50;;;;;;;1.97;100.00;94875.00;5056163;28;20048;-74
2023/04/15 05:50:49;;;;;;;4.15;2.28;;;;;;;2.08;100.00;94872.00;5060425;28;20060;-74
2023/04/15 05:53:16;;;;;;;7.30;3.65;;;;;;;2.05;100.00;94879.78;5059830;28;20132;-76
2023/04/15 05:55:43;;;;;;;7.03;3.88;;;;;;;1.96;100.00;94877.63;5061257;28;20045;-75
2023/04/15 05:58:09;;;;;;;5.57;4.53;;;;;;;2.03;100.00;94879.84;5052706;28;20049;-75
2023/04/15 06:00:37;;;;;;;18.83;4.78;;;;;;;2.20;100.00;94875.72;5062913;28;20075;-75
2023/04/15 06:03:05;;;;;;;7.90;4.70;;;;;;;2.17;100.00;94881.78;5062013;28;20056;-74
2023/04/15 06:05:31;;;;;;;6.85;3.88;;;;;;;2.33;100.00;94879.38;5060716;28;20045;-73
2023/04/15 06:07:58;;;;;;;4.57;3.20;;;;;;;2.49;100.00;94879.53;5060411;28;20045;-74
2023/04/15 06:10:24;;;;;;;4.78;2.60;;;;;;;2.65;100.00;94880.47;5068617;28;20431;-76
2023/04/15 06:12:52;;;;;;;5.85;3.42;;;;;;;2.62;100.00;94885.72;5062143;28;20547;-76
2023/04/15 06:15:19;;;;;;;6.93;4.53;;;;;;;2.53;100.00;94886.16;5057855;28;20045;-76
2023/04/15 06:17:47;;;;;;;10.32;5.32;;;;;;;2.52;100.00;94884.47;5060484;28;20052;-76
2023/04/15 06:20:13;;;;;;;5.93;4.30;;;;;;;2.53;100.00;94887.00;5070251;28;20059;-70
2023/04/15 06:22:40;;;;;;;6.45;4.18;;;;;;;2.56;100.00;94891.09;5061761;28;20044;-75
2023/04/15 06:25:08;;;;;;;6.13;4.03;;;;;;;2.51;100.00;94885.38;5060086;28;20458;-75
2023/04/15 06:27:34;;;;;;;6.55;3.63;;;;;;;2.48;100.00;94883.78;5056670;28;20049;-76
2023/04/15 06:30:01;;;;;;;7.47;3.55;;;;;;;2.36;100.00;94886.91;5065823;28;20063;-75
2023/04/15 06:32:27;;;;;;;8.05;3.33;;;;;;;2.32;100.00;94882.84;5055597;28;20052;-75
2023/04/15 06:34:55;;;;;;;4.65;2.83;;;;;;;2.37;100.00;94883.44;5059324;28;20060;-75
2023/04/15 06:37:22;;;;;;;4.82;3.10;;;;;;;2.46;100.00;94885.59;5057342;28;20049;-76
2023/04/15 06:39:48;;;;;;;4.63;2.80;;;;;;;2.46;100.00;94888.16;5051891;28;20052;-75
2023/04/15 06:42:15;;;;;;;4.50;2.70;;;;;;;2.48;100.00;94888.91;5059262;28;20048;-75
2023/04/15 06:44:42;;;;;;;7.45;3.08;;;;;;;2.52;100.00;94893.00;5065830;28;20106;-75
2023/04/15 06:47:08;;;;;;;3.90;2.65;;;;;;;2.59;100.00;94890.97;5057618;28;20524;-75
2023/04/15 06:49:35;;;;;;;3.78;2.47;;;;;;;2.70;100.00;94887.94;5055309;28;20083;-75
2023/04/15 06:52:03;;;;;;;4.65;2.70;;;;;;;2.81;100.00;94889.09;5063339;28;20060;-75
2023/04/15 06:54:30;;;;;;;5.72;3.22;;;;;;;2.94;100.00;94889.34;5062574;28;20056;-76
2023/04/15 06:56:56;;;;;;;3.22;2.20;;;;;;;3.06;100.00;94893.06;5057831;28;20074;-75
2023/04/15 06:59:23;;;;;;;3.92;2.63;;;;;;;3.31;100.00;94891.00;5060296;28;20051;-75
2023/04/15 07:01:50;;;;;;;4.47;2.78;;;;;;;3.29;100.00;94886.84;5062827;28;20041;-76
2023/04/15 07:04:16;;;;;;;5.95;3.47;;;;;;;3.45;100.00;94892.03;5057654;28;20048;-76
2023/04/15 07:06:43;;;;;;;5.32;3.00;;;;;;;3.62;100.00;94894.59;5055618;28;20052;-77
2023/04/15 07:09:11;;;;;;;9.88;3.13;;;;;;;3.81;100.00;94885.09;5054908;28;20037;-76
2023/04/15 07:11:37;;;;;;;5.20;2.50;;;;;;;4.02;100.00;94882.34;5062014;28;20063;-76
2023/04/15 07:14:04;;;;;;;3.55;2.13;;;;;;;4.17;100.00;94886.69;5054516;28;20047;-76
2023/04/15 07:16:30;;;;;;;6.10;3.20;;;;;;;4.47;100.00;94878.28;5060436;28;20110;-76
2023/04/15 07:18:57;;;;;;;6.43;3.13;;;;;;;4.58;100.00;94884.50;5053838;28;20048;-76
2023/04/15 07:21:24;;;;;;;4.18;2.65;;;;;;;4.49;100.00;94882.44;5053616;28;20519;-77
2023/04/15 07:23:50;;;;;;;5.78;3.47;;;;;;;4.50;100.00;94878.97;5064520;28;20391;-76
2023/04/15 07:26:18;;;;;;;6.78;4.18;;;;;;;4.69;100.00;94875.41;5059063;28;20466;-76
2023/04/15 07:28:46;;;;;;;7.22;3.22;;;;;;;4.56;100.00;94880.34;5064672;28;20041;-76
2023/04/15 07:31:13;;;;;;;12.40;3.92;;;;;;;4.85;100.00;94883.91;5051301;28;20071;-76
2023/04/15 07:33:40;;;;;;;7.15;3.58;;;;;;;4.78;100.00;94883.44;5053905;28;20061;-76
2023/04/15 07:36:07;;;;;;;6.00;3.25;;;;;;;4.70;100.00;94883.00;5066362;28;20048;-76
2023/04/15 07:38:33;;;;;;;6.47;3.83;;;;;;;4.50;100.00;94888.41;5063803;28;20051;-76
2023/04/15 07:41:00;;;;;;;7.85;3.58;;;;;;;4.51;100.00;94884.91;5055841;28;20514;-76
2023/04/15 07:43:27;;;;;;;9.07;3.42;;;;;;;4.63;100.00;94886.00;5064755;28;20052;-76
2023/04/15 07:45:54;;;;;;;9.07;2.90;;;;;;;4.92;100.00;94884.41;5057491;28;20056;-76
2023/04/15 07:48:20;;;;;;;;;;;;;;;4.98;100.00;94889.22;5059061;28;20045;-76
2023/04/15 07:50:47;;;;;;;;;;;;;;;5.06;100.00;94887.06;5056222;28;19924;-77
2023/04/15 07:53:13;;;;;;;;;;;;;;;5.21;100.00;94885.38;5058517;28;19932;-77
2023/04/15 07:55:39;;;;;;;;;;;;;;;5.27;100.00;94879.91;5063675;28;20003;-76
2023/04/15 07:58:06;;;;;;;;;;;;;;;5.38;100.00;94887.84;5062184;28;20015;-76
2023/04/15 08:00:33;;;;;;;;;;;;;;;5.55;100.00;94879.97;5056238;28;19920;-76
2023/04/15 08:03:00;;;;;;;;;;;;;;;5.90;100.00;94881.44;5055456;28;19927;-77
2023/04/15 08:05:26;;;;;;;;;;;;;;;6.11;100.00;94887.09;5052134;28;19921;-77
2023/04/15 08:07:52;;;;;;;;;;;;;;;6.17;100.00;94881.59;5061532;28;19920;-77
2023/04/15 08:10:19;;;;;;;;;;;;;;;6.46;100.00;94883.22;5063301;28;19925;-77
2023/04/15 08:12:47;;;;;;;;;;;;;;;6.85;100.00;94881.69;5056659;28;20394;-77
2023/04/15 08:15:14;;;;;;;6.63;3.70;;;;;;;7.10;100.00;94873.25;5060493;28;19921;-77
2023/04/15 08:17:42;;;;;;;5.28;3.63;;;;;;;7.54;100.00;94873.91;5059246;28;20044;-75
2023/04/15 08:20:09;;;;;;;;;;;;;;;7.90;100.00;94876.66;5055314;28;20052;-75
2023/04/15 08:22:35;;;;;;;;;;;;;;;7.95;100.00;94873.75;5055339;28;19966;-76
2023/04/15 08:25:02;;;;;;;;;;;;;;;7.75;100.00;94877.66;5059945;28;20034;-76
2023/04/15 08:27:28;;;;;;;;;;;;;;;7.81;100.00;94879.00;5069661;28;19978;-76
2023/04/15 08:29:54;;;;;;;;;;;;;;;8.05;100.00;94876.56;5062966;28;19932;-77
2023/04/15 08:32:21;;;;;;;;;;;;;;;8.22;99.62;94881.38;5066947;28;19927;-76
2023/04/15 08:34:49;;;;;;;;;;;;;;;8.11;99.48;94881.28;5060595;28;20303;-77
2023/04/15 08:37:15;;;;;;;;;;;;;;;8.16;100.00;94874.91;5067056;28;19927;-77
2023/04/15 08:39:42;;;;;;;;;;;;;;;8.39;99.95;94890.59;5067204;28;20412;-76
2023/04/15 08:42:12;;;;;;;;;;;;;;;8.56;100.00;94887.66;5070181;28;19921;-77
2023/04/15 08:44:39;;;;;;;;;;;;;;;8.74;97.41;94888.16;5067054;28;20007;-77
2023/04/15 08:47:07;;;;;;;;;;;;;;;8.82;96.70;94887.63;5067443;28;19967;-77
2023/04/15 08:49:35;;;;;;;;;;;;;;;9.02;99.77;94886.25;5067033;28;19920;-77
2023/04/15 08:52:03;;;;;;;;;;;;;;;9.11;87.83;94888.16;5062433;28;19920;-77
2023/04/15 08:54:29;;;;;;;;;;;;;;;9.23;86.05;94891.63;5061036;28;19927;-77
2023/04/15 08:56:57;;;;;;;;;;;;;;;9.45;86.64;94889.16;5060916;28;19921;-77
2023/04/15 08:59:23;;;;;;;;;;;;;;;9.43;73.75;94891.84;5063798;28;19929;-77
2023/04/15 09:01:50;;;;;;;;;;;;;;;9.59;73.33;94888.97;5066449;28;20426;-77
2023/04/15 09:04:17;;;;;;;;;;;;;;;9.90;74.41;94890.16;5054491;28;20425;-77
2023/04/15 09:06:43;;;;;;;;;;;;;;;9.88;69.65;94892.00;5065694;28;19928;-77
2023/04/15 09:09:13;;;;;;;;;;;;;;;9.91;76.30;94901.31;5060296;28;19921;-77
2023/04/15 09:11:39;;;;;;;;;;;;;;;9.82;88.97;94900.22;5057242;28;20275;-76
2023/04/15 09:14:05;;;;;;;;;;;;;;;9.92;88.07;94890.84;5058797;28;19931;-76
2023/04/15 09:16:32;;;;;;;;;;;;;;;10.02;83.33;94900.53;5056466;28;20015;-76
2023/04/15 09:18:58;;;;;;;;;;;;;;;10.16;89.81;94900.31;5059256;28;19924;-76
2023/04/15 09:21:24;;;;;;;;;;;;;;;10.38;87.32;94907.28;5063149;28;20315;-76
2023/04/15 09:23:55;;;;;;;;;;;;;;;10.39;74.27;94904.59;5061911;28;19928;-76
2023/04/15 09:26:31;;;;;;;;;;;;;;;10.50;72.81;94908.16;5056038;28;19974;-76
2023/04/15 09:29:03;;;;;;;;;;;;;;;10.40;71.85;94910.59;5059200;28;19931;-76
2023/04/15 09:31:30;;;;;;;;;;;;;;;10.41;71.45;94913.06;5057066;28;19935;-76
2023/04/15 09:33:56;;;;;;;;;;;;;;;10.26;70.14;94908.22;5064720;28;19921;-77
2023/04/15 09:36:23;;;;;;;;;;;;;;;10.08;65.50;94910.41;5065788;28;20366;-76
2023/04/15 09:38:54;;;;;;;;;;;;;;;10.06;65.87;94912.28;5055313;28;19955;-76
2023/04/15 09:41:21;;;;;;;;;;;;;;;10.10;65.47;94914.53;5069145;28;19920;-76
2023/04/15 09:43:48;;;;;;;;;;;;;;;10.15;62.38;94922.75;5066200;28;19931;-76
2023/04/15 09:46:15;;;;;;;;;;;;;;;10.24;62.27;94915.28;5060894;28;20315;-76
2023/04/15 09:48:41;;;;;;;;;;;;;;;10.25;61.07;94917.75;5064276;28;20399;-77
2023/04/15 09:51:07;;;;;;;;;;;;;;;10.18;58.11;94913.94;5060065;28;19921;-77
2023/04/15 09:53:34;;;;;;;;;;;;;;;10.16;59.16;94914.09;5056717;28;19927;-76
2023/04/15 09:56:01;;;;;;;;;;;;;;;10.26;58.73;94921.16;5065008;28;19921;-76
2023/04/15 09:58:29;;;;;;;;;;;;;;;10.38;56.42;94915.91;5057117;28;19967;-76
2023/04/15 10:00:57;;;;;;;;;;;;;;;10.41;54.42;94928.59;5066436;28;19920;-76
2023/04/15 10:03:25;;;;;;;;;;;;;;;10.45;53.24;94928.38;5061941;28;19928;-77
2023/04/15 10:05:52;;;;;;;;;;;;;;;10.45;55.21;94923.19;5067562;28;19920;-77
2023/04/15 10:08:19;;;;;;;;;;;;;;;10.32;51.11;94916.38;5058192;28;19928;-77
2023/04/15 10:10:46;;;;;;;;;;;;;;;10.31;52.01;94924.25;5057382;28;19928;-76
2023/04/15 10:13:13;;;;;;;;;;;;;;;10.44;51.47;94926.72;5065785;28;19959;-77
2023/04/15 10:15:40;;;;;;;;;;;;;;;10.59;50.23;94928.97;5065043;28;19920;-77
2023/04/15 10:18:10;;;;;;;;;;;;;;;10.66;51.75;94935.34;5058189;28;19925;-77
2023/04/15 10:20:36;;;;;;;;;;;;;;;10.60;50.70;94929.78;5066546;28;20306;-73
2023/04/15 10:23:03;;;;;;;;;;;;;;;10.62;50.93;94935.69;5062285;28;19931;-76
2023/04/15 10:25:30;;;;;;;;;;;;;;;10.74;50.41;94926.97;5059728;28;19921;-76
2023/04/15 10:27:57;;;;;;;;;;;;;;;10.88;50.81;94931.09;5065271;28;19970;-76
2023/04/15 10:30:23;;;;;;;;;;;;;;;10.96;51.91;94930.50;5065719;28;19924;-76
2023/04/15 10:32:50;;;;;;;;;;;;;;;10.95;52.76;94934.06;5070989;28;19924;-76
2023/04/15 10:35:18;;;;;;;;;;;;;;;10.86;51.24;94938.16;5062245;28;20410;-76
2023/04/15 10:37:44;;;;;;;;;;;;;;;10.79;52.34;94934.38;5053113;28;19920;-76
2023/04/15 10:40:26;;;;;;;;;;;;;;;10.74;53.22;94939.09;5058318;28;19920;-76
2023/04/15 10:42:52;;;;;;;;;;;;;;;10.82;52.74;94949.69;5056481;28;19927;-76
2023/04/15 10:45:19;;;;;;;;;;;;;;;10.76;50.63;94945.00;5057732;28;20011;-76
2023/04/15 10:47:46;;;;;;;;;;;;;;;10.95;50.91;94952.19;5052908;28;19924;-76
2023/04/15 10:50:12;;;;;;;;;;;;;;;11.08;54.60;94945.91;5059157;28;19921;-76
2023/04/15 10:52:41;;;;;;;;;;;;;;;11.32;52.32;94955.31;5058970;28;19932;-76
2023/04/15 10:55:13;;;;;;;;;;;;;;;11.50;54.32;94960.84;5058737;28;19924;-77
2023/04/15 10:57:40;;;;;;;;;;;;;;;11.60;52.00;94965.13;5061787;28;19921;-76
2023/04/15 11:00:10;;;;;;;;;;;;;;;11.48;53.72;94957.53;5063671;28;20321;-76
2023/04/15 11:02:40;;;;;;;;;;;;;;;11.54;56.59;94964.81;5061436;28;19952;-76
2023/04/15 11:05:07;;;;;;;;;;;;;;;11.13;56.77;94968.91;5060335;28;19920;-76
2023/04/15 11:07:34;;;;;;;;;;;;;;;10.90;58.13;94962.88;5057646;28;19924;-76
2023/04/15 11:10:02;;;;;;;;;;;;;;;10.96;60.26;94967.59;5054557;28;19921;-77
2023/04/15 11:12:35;;;;;;;;;;;;;;;10.62;60.66;94964.19;5063601;28;19932;-77
2023/04/15 11:15:22;;;;;;;;;;;;;;;10.63;61.62;94983.94;5054626;28;19920;-77
2023/04/15 11:17:49;;;;;;;;;;;;;;;10.89;61.58;94979.38;5059990;28;19928;-76
2023/04/15 11:20:16;;;;;;;;;;;;;;;10.76;59.42;94982.09;5063078;28;20294;-76
2023/04/15 11:22:47;;;;;;;;;;;;;;;10.73;57.97;94981.50;5066158;28;19928;-77
2023/04/15 11:25:23;;;;;;;;;;;;;;;10.66;56.82;94984.53;5057113;28;20379;-77
2023/04/15 11:27:49;;;;;;;;;;;;;;;10.67;55.20;94982.78;5057603;28;19955;-76
2023/04/15 11:30:20;;;;;;;;;;;;;;;10.89;55.60;94975.00;5057853;28;19955;-76
2023/04/15 11:32:46;;;;;;;;;;;;;;;10.95;54.44;94985.88;5056524;28;19920;-76
2023/04/15 11:35:13;;;;;;;;;;;;;;;10.96;54.95;94990.09;5057008;28;19932;-76
2023/04/15 11:37:39;;;;;;;;;;;;;;;10.81;57.30;94989.50;5059119;28;19925;-75
2023/04/15 11:40:06;;;;;;;;;;;;;;;10.92;57.04;94986.09;5060268;28;19920;-76
2023/04/15 11:42:34;;;;;;;;;;;;;;;10.91;56.56;94990.47;5054454;28;19921;-76
2023/04/15 11:45:06;;;;;;;;;;;;;;;11.07;57.31;94995.28;5063976;28;19920;-76
2023/04/15 11:47:32;;;;;;;;;;;;;;;11.21;57.08;95000.22;5060476;28;19928;-76
2023/04/15 11:50:13;;;;;;;;;;;;;;;11.13;56.51;95005.19;5060112;28;19925;-76
2023/04/15 11:52:39;;;;;;;;;;;;;;;11.14;53.01;94997.28;5055964;28;19924;-76
2023/04/15 11:55:07;;;;;;;;;;;;;;;10.76;55.10;95010.56;5063997;28;19925;-76